MAPA DE AEROPUERTO

INFORMACIÓN METAR y TAF

METAR FOR LEPA
ADDS - METARS form results

(1939 UTC 27 January 2021)
Data provider http://aviationweather.gov/metar/data/
 
METAR text: LEPA 271930Z 07005KT 9999 FEW045 13/11 Q1021 NOSIG
Conditions at: LEPA (PALMA DE MALLORC, ES) observed 1930 UTC 27 January 2021
Temperature: 13.0°C (55°F)
Dewpoint: 11.0°C (52°F) [RH = 88%]
Pressure (altimeter): 30.15 inches Hg (1021.0 mb)
Winds: from the ENE (70 degrees) at 6 MPH (5 knots; 2.6 m/s)
Visibility: 6 or more miles (10+ km)
Ceiling: at least 12,000 feet AGL
Clouds: few clouds at 4500 feet AGL
Weather: no significant weather observed at this time

METAR text: LEPA 271900Z 08005KT 9999 FEW040 14/11 Q1021 NOSIG
Conditions at: LEPA (PALMA DE MALLORC, ES) observed 1900 UTC 27 January 2021
Temperature: 14.0°C (57°F)
Dewpoint: 11.0°C (52°F) [RH = 82%]
Pressure (altimeter): 30.15 inches Hg (1021.0 mb)
Winds: from the E (80 degrees) at 6 MPH (5 knots; 2.6 m/s)
Visibility: 6 or more miles (10+ km)
Ceiling: at least 12,000 feet AGL
Clouds: few clouds at 4000 feet AGL
Weather: no significant weather observed at this time

Forecast for: LEPA (PALMA DE MALLORC, ES)
Text: TAF LEPA 271700Z 2718/2818 27008KT 9999 FEW040 TX20/2813Z TN09/2806Z
Forecast period: 1800 UTC 27 January 2021 to 1800 UTC 28 January 2021
Forecast type: FROM: standard forecast or significant change
Winds: from the W (270 degrees) at 9 MPH (8 knots; 4.1 m/s)
Visibility: 6 or more miles (10+ km)
Ceiling: at least 12,000 feet AGL
Clouds: few clouds at 4000 feet AGL
Weather: no significant weather forecast for this period
Text: BECMG 2718/2720 VRB04KT
Forecast period: 1800 UTC 27 January 2021 to 0800 UTC 28 January 2021
Forecast type: BECOMING: Conditions expected to become as follows by 2000 UTC 27 January 2021
Winds: variable direction winds at 5 MPH (4 knots; 2.1 m/s)
Visibility: 6 or more miles (10+ km)
Ceiling: at least 12,000 feet AGL
Clouds: few clouds at 4000 feet AGL
Weather: no significant weather forecast for this period
Text: PROB30
Forecast period: 2200 UTC 27 January 2021 to 0600 UTC 28 January 2021
Forecast type: TEMPORARY: The following changes expected for less than half the time period
Visibility: 1.86 miles (2.99 km)
Ceiling: at least 12,000 feet AGL
Clouds: few clouds at 200 feet AGL
Weather: BR BCFG  (mist, patches of fog)
Text: TEMPO 2722/2806 3000 BR BCFG FEW002
Forecast period: 0800 to 1800 UTC 28 January 2021
Forecast type: BECOMING: Conditions expected to become as follows by 1000 UTC 28 January 2021
Winds: from the SW (220 degrees) at 9 MPH (8 knots; 4.1 m/s)
Visibility: 6 or more miles (10+ km)
Ceiling: at least 12,000 feet AGL
Clouds: few clouds at 4000 feet AGL
Weather: no significant weather forecast for this period